sensor_id;sensor_type;location;lat;lon;timestamp;P1;durP1;ratioP1;P2;durP2;ratioP2
26080;SDS011;13991;51.174;4.438;2023-08-30T00:00:40;12.57;;;5.83;;
26080;SDS011;13991;51.174;4.438;2023-08-30T00:03:05;19.67;;;5.63;;
26080;SDS011;13991;51.174;4.438;2023-08-30T00:05:31;14.83;;;5.17;;
26080;SDS011;13991;51.174;4.438;2023-08-30T00:07:57;14.37;;;5.40;;
26080;SDS011;13991;51.174;4.438;2023-08-30T00:10:23;25.43;;;6.47;;
26080;SDS011;13991;51.174;4.438;2023-08-30T00:12:49;23.43;;;5.53;;
26080;SDS011;13991;51.174;4.438;2023-08-30T00:15:15;13.40;;;6.07;;
26080;SDS011;13991;51.174;4.438;2023-08-30T00:17:41;14.67;;;5.83;;
26080;SDS011;13991;51.174;4.438;2023-08-30T00:20:07;13.43;;;5.53;;
26080;SDS011;13991;51.174;4.438;2023-08-30T00:22:33;17.63;;;6.73;;
26080;SDS011;13991;51.174;4.438;2023-08-30T00:25:00;14.97;;;5.77;;
26080;SDS011;13991;51.174;4.438;2023-08-30T00:27:26;23.47;;;5.70;;
26080;SDS011;13991;51.174;4.438;2023-08-30T00:29:52;16.97;;;5.60;;
26080;SDS011;13991;51.174;4.438;2023-08-30T00:32:17;13.67;;;5.27;;
26080;SDS011;13991;51.174;4.438;2023-08-30T00:34:43;12.33;;;5.50;;
26080;SDS011;13991;51.174;4.438;2023-08-30T00:37:08;14.37;;;5.50;;
26080;SDS011;13991;51.174;4.438;2023-08-30T00:39:37;11.53;;;5.40;;
26080;SDS011;13991;51.174;4.438;2023-08-30T00:42:03;13.73;;;5.67;;
26080;SDS011;13991;51.174;4.438;2023-08-30T00:44:31;14.33;;;5.23;;
26080;SDS011;13991;51.174;4.438;2023-08-30T00:46:57;11.67;;;5.53;;
26080;SDS011;13991;51.174;4.438;2023-08-30T00:49:23;12.97;;;5.27;;
26080;SDS011;13991;51.174;4.438;2023-08-30T00:51:49;10.53;;;3.97;;
26080;SDS011;13991;51.174;4.438;2023-08-30T00:54:15;11.13;;;5.50;;
26080;SDS011;13991;51.174;4.438;2023-08-30T00:56:41;12.73;;;5.37;;
26080;SDS011;13991;51.174;4.438;2023-08-30T00:59:07;17.90;;;5.10;;
26080;SDS011;13991;51.174;4.438;2023-08-30T01:01:33;13.23;;;5.10;;
26080;SDS011;13991;51.174;4.438;2023-08-30T01:03:59;10.40;;;5.13;;
26080;SDS011;13991;51.174;4.438;2023-08-30T01:06:25;15.60;;;5.37;;
26080;SDS011;13991;51.174;4.438;2023-08-30T01:08:51;16.90;;;6.30;;
26080;SDS011;13991;51.174;4.438;2023-08-30T01:13:58;13.40;;;5.20;;
26080;SDS011;13991;51.174;4.438;2023-08-30T01:16:33;14.33;;;5.57;;
26080;SDS011;13991;51.174;4.438;2023-08-30T01:19:01;12.57;;;5.53;;
26080;SDS011;13991;51.174;4.438;2023-08-30T01:24:57;15.43;;;5.50;;
26080;SDS011;13991;51.174;4.438;2023-08-30T01:27:37;10.33;;;4.87;;
26080;SDS011;13991;51.174;4.438;2023-08-30T01:30:04;15.73;;;5.47;;
26080;SDS011;13991;51.174;4.438;2023-08-30T01:32:33;16.10;;;4.57;;
26080;SDS011;13991;51.174;4.438;2023-08-30T01:35:00;18.23;;;5.43;;
26080;SDS011;13991;51.174;4.438;2023-08-30T01:37:27;12.53;;;5.23;;
26080;SDS011;13991;51.174;4.438;2023-08-30T01:39:54;10.63;;;5.30;;
26080;SDS011;13991;51.174;4.438;2023-08-30T01:42:22;11.23;;;4.63;;
26080;SDS011;13991;51.174;4.438;2023-08-30T01:44:52;12.93;;;5.03;;
26080;SDS011;13991;51.174;4.438;2023-08-30T01:47:22;12.70;;;5.57;;
26080;SDS011;13991;51.174;4.438;2023-08-30T01:49:50;20.27;;;5.30;;
26080;SDS011;13991;51.174;4.438;2023-08-30T01:52:17;24.83;;;5.33;;
26080;SDS011;13991;51.174;4.438;2023-08-30T01:54:44;9.23;;;5.17;;
26080;SDS011;13991;51.174;4.438;2023-08-30T01:57:12;14.47;;;6.13;;
26080;SDS011;13991;51.174;4.438;2023-08-30T01:59:38;11.80;;;5.10;;
26080;SDS011;13991;51.174;4.438;2023-08-30T02:02:04;14.27;;;5.57;;
26080;SDS011;13991;51.174;4.438;2023-08-30T02:04:30;13.63;;;5.03;;
26080;SDS011;13991;51.174;4.438;2023-08-30T02:07:02;20.07;;;5.60;;
26080;SDS011;13991;51.174;4.438;2023-08-30T02:09:35;8.83;;;5.00;;
26080;SDS011;13991;51.174;4.438;2023-08-30T02:12:07;14.17;;;5.53;;
26080;SDS011;13991;51.174;4.438;2023-08-30T02:14:37;8.73;;;4.80;;
26080;SDS011;13991;51.174;4.438;2023-08-30T02:17:04;9.53;;;4.93;;
26080;SDS011;13991;51.174;4.438;2023-08-30T02:19:31;16.17;;;5.07;;
26080;SDS011;13991;51.174;4.438;2023-08-30T02:21:57;13.83;;;5.27;;
26080;SDS011;13991;51.174;4.438;2023-08-30T02:24:24;8.77;;;5.03;;
26080;SDS011;13991;51.174;4.438;2023-08-30T02:26:50;10.23;;;5.33;;
26080;SDS011;13991;51.174;4.438;2023-08-30T02:29:15;8.83;;;5.10;;
26080;SDS011;13991;51.174;4.438;2023-08-30T02:31:41;11.43;;;5.13;;
26080;SDS011;13991;51.174;4.438;2023-08-30T02:34:07;15.70;;;5.23;;
26080;SDS011;13991;51.174;4.438;2023-08-30T02:36:32;12.90;;;4.90;;
26080;SDS011;13991;51.174;4.438;2023-08-30T02:38:58;12.10;;;5.47;;
26080;SDS011;13991;51.174;4.438;2023-08-30T02:41:23;10.80;;;4.80;;
26080;SDS011;13991;51.174;4.438;2023-08-30T02:43:49;13.60;;;4.87;;
26080;SDS011;13991;51.174;4.438;2023-08-30T02:46:15;15.30;;;6.03;;
26080;SDS011;13991;51.174;4.438;2023-08-30T02:48:40;10.93;;;4.80;;
26080;SDS011;13991;51.174;4.438;2023-08-30T02:51:06;12.00;;;5.73;;
26080;SDS011;13991;51.174;4.438;2023-08-30T02:53:31;12.87;;;5.30;;
26080;SDS011;13991;51.174;4.438;2023-08-30T02:55:57;9.17;;;5.03;;
26080;SDS011;13991;51.174;4.438;2023-08-30T02:58:23;11.03;;;5.17;;
26080;SDS011;13991;51.174;4.438;2023-08-30T03:00:48;12.47;;;3.83;;
26080;SDS011;13991;51.174;4.438;2023-08-30T03:03:14;10.07;;;5.03;;
26080;SDS011;13991;51.174;4.438;2023-08-30T03:05:40;9.37;;;4.90;;
26080;SDS011;13991;51.174;4.438;2023-08-30T03:08:05;10.97;;;5.27;;
26080;SDS011;13991;51.174;4.438;2023-08-30T03:10:31;8.93;;;4.97;;
26080;SDS011;13991;51.174;4.438;2023-08-30T03:12:57;11.90;;;4.77;;
26080;SDS011;13991;51.174;4.438;2023-08-30T03:15:22;24.03;;;6.17;;
26080;SDS011;13991;51.174;4.438;2023-08-30T03:17:48;18.27;;;5.40;;
26080;SDS011;13991;51.174;4.438;2023-08-30T03:20:14;12.13;;;5.53;;
26080;SDS011;13991;51.174;4.438;2023-08-30T03:22:39;13.30;;;5.00;;
26080;SDS011;13991;51.174;4.438;2023-08-30T03:25:05;15.30;;;5.53;;
26080;SDS011;13991;51.174;4.438;2023-08-30T03:27:32;11.97;;;5.23;;
26080;SDS011;13991;51.174;4.438;2023-08-30T03:29:58;16.17;;;5.30;;
26080;SDS011;13991;51.174;4.438;2023-08-30T03:32:23;20.53;;;5.80;;
26080;SDS011;13991;51.174;4.438;2023-08-30T03:34:49;16.50;;;5.40;;
26080;SDS011;13991;51.174;4.438;2023-08-30T03:37:15;9.50;;;5.37;;
26080;SDS011;13991;51.174;4.438;2023-08-30T03:39:41;13.73;;;6.03;;
26080;SDS011;13991;51.174;4.438;2023-08-30T03:42:08;13.80;;;5.83;;
26080;SDS011;13991;51.174;4.438;2023-08-30T03:44:34;12.00;;;4.90;;
26080;SDS011;13991;51.174;4.438;2023-08-30T03:46:59;17.83;;;6.00;;
26080;SDS011;13991;51.174;4.438;2023-08-30T03:49:25;11.83;;;5.50;;
26080;SDS011;13991;51.174;4.438;2023-08-30T03:51:51;13.27;;;5.80;;
26080;SDS011;13991;51.174;4.438;2023-08-30T03:54:16;14.60;;;5.73;;
26080;SDS011;13991;51.174;4.438;2023-08-30T03:56:43;17.20;;;5.00;;
26080;SDS011;13991;51.174;4.438;2023-08-30T03:59:09;17.47;;;5.20;;
26080;SDS011;13991;51.174;4.438;2023-08-30T04:01:35;22.93;;;5.63;;
26080;SDS011;13991;51.174;4.438;2023-08-30T04:04:00;21.33;;;5.50;;
26080;SDS011;13991;51.174;4.438;2023-08-30T04:06:26;19.43;;;5.47;;
26080;SDS011;13991;51.174;4.438;2023-08-30T04:08:52;12.23;;;5.20;;
26080;SDS011;13991;51.174;4.438;2023-08-30T04:11:17;14.03;;;5.20;;
26080;SDS011;13991;51.174;4.438;2023-08-30T04:13:43;12.50;;;4.93;;
26080;SDS011;13991;51.174;4.438;2023-08-30T04:16:08;18.23;;;4.27;;
26080;SDS011;13991;51.174;4.438;2023-08-30T04:18:35;12.07;;;5.23;;
26080;SDS011;13991;51.174;4.438;2023-08-30T04:21:01;13.57;;;6.07;;
26080;SDS011;13991;51.174;4.438;2023-08-30T04:23:27;19.10;;;5.33;;
26080;SDS011;13991;51.174;4.438;2023-08-30T04:25:54;15.67;;;5.10;;
26080;SDS011;13991;51.174;4.438;2023-08-30T04:28:20;12.80;;;5.63;;
26080;SDS011;13991;51.174;4.438;2023-08-30T04:30:46;17.57;;;5.17;;
26080;SDS011;13991;51.174;4.438;2023-08-30T04:33:11;11.83;;;4.73;;
26080;SDS011;13991;51.174;4.438;2023-08-30T04:35:38;13.60;;;4.87;;
26080;SDS011;13991;51.174;4.438;2023-08-30T04:38:04;13.47;;;4.97;;
26080;SDS011;13991;51.174;4.438;2023-08-30T04:40:30;10.93;;;5.30;;
26080;SDS011;13991;51.174;4.438;2023-08-30T04:42:57;14.43;;;4.77;;
26080;SDS011;13991;51.174;4.438;2023-08-30T04:45:24;13.23;;;5.10;;
26080;SDS011;13991;51.174;4.438;2023-08-30T04:47:49;19.40;;;4.80;;
26080;SDS011;13991;51.174;4.438;2023-08-30T04:50:15;9.77;;;4.67;;
26080;SDS011;13991;51.174;4.438;2023-08-30T04:52:42;18.83;;;5.40;;
26080;SDS011;13991;51.174;4.438;2023-08-30T04:55:08;10.60;;;5.07;;
26080;SDS011;13991;51.174;4.438;2023-08-30T04:57:34;19.47;;;5.50;;
26080;SDS011;13991;51.174;4.438;2023-08-30T04:59:59;15.17;;;4.87;;
26080;SDS011;13991;51.174;4.438;2023-08-30T05:02:29;20.70;;;4.80;;
26080;SDS011;13991;51.174;4.438;2023-08-30T05:04:55;13.87;;;5.90;;
26080;SDS011;13991;51.174;4.438;2023-08-30T05:07:21;12.57;;;4.97;;
26080;SDS011;13991;51.174;4.438;2023-08-30T05:09:46;20.73;;;5.00;;
26080;SDS011;13991;51.174;4.438;2023-08-30T05:12:12;16.20;;;5.13;;
26080;SDS011;13991;51.174;4.438;2023-08-30T05:14:38;18.23;;;5.03;;
26080;SDS011;13991;51.174;4.438;2023-08-30T05:17:05;14.60;;;5.17;;
26080;SDS011;13991;51.174;4.438;2023-08-30T05:19:31;17.63;;;6.13;;
26080;SDS011;13991;51.174;4.438;2023-08-30T05:21:57;18.23;;;5.87;;
26080;SDS011;13991;51.174;4.438;2023-08-30T05:24:22;17.20;;;5.80;;
26080;SDS011;13991;51.174;4.438;2023-08-30T05:26:48;12.03;;;4.93;;
26080;SDS011;13991;51.174;4.438;2023-08-30T05:29:14;16.70;;;5.37;;
26080;SDS011;13991;51.174;4.438;2023-08-30T05:31:40;12.43;;;5.50;;
26080;SDS011;13991;51.174;4.438;2023-08-30T05:34:06;17.27;;;6.73;;
26080;SDS011;13991;51.174;4.438;2023-08-30T05:36:32;16.70;;;5.43;;
26080;SDS011;13991;51.174;4.438;2023-08-30T05:38:58;21.47;;;6.43;;
26080;SDS011;13991;51.174;4.438;2023-08-30T05:41:23;13.93;;;5.97;;
26080;SDS011;13991;51.174;4.438;2023-08-30T05:43:49;19.03;;;5.80;;
26080;SDS011;13991;51.174;4.438;2023-08-30T05:46:16;15.33;;;5.60;;
26080;SDS011;13991;51.174;4.438;2023-08-30T05:48:41;17.53;;;6.63;;
26080;SDS011;13991;51.174;4.438;2023-08-30T05:51:08;12.57;;;5.33;;
26080;SDS011;13991;51.174;4.438;2023-08-30T05:53:34;9.73;;;4.90;;
26080;SDS011;13991;51.174;4.438;2023-08-30T05:55:59;15.43;;;4.97;;
26080;SDS011;13991;51.174;4.438;2023-08-30T05:58:25;14.67;;;6.30;;
26080;SDS011;13991;51.174;4.438;2023-08-30T06:00:51;13.63;;;5.70;;
26080;SDS011;13991;51.174;4.438;2023-08-30T06:03:16;17.30;;;7.00;;
26080;SDS011;13991;51.174;4.438;2023-08-30T06:05:42;14.23;;;5.57;;
26080;SDS011;13991;51.174;4.438;2023-08-30T06:08:08;18.20;;;6.53;;
26080;SDS011;13991;51.174;4.438;2023-08-30T06:10:35;23.07;;;6.13;;
26080;SDS011;13991;51.174;4.438;2023-08-30T06:13:01;25.47;;;6.87;;
26080;SDS011;13991;51.174;4.438;2023-08-30T06:15:27;24.50;;;7.17;;
26080;SDS011;13991;51.174;4.438;2023-08-30T06:17:53;20.53;;;6.93;;
26080;SDS011;13991;51.174;4.438;2023-08-30T06:20:19;29.03;;;6.80;;
26080;SDS011;13991;51.174;4.438;2023-08-30T06:22:45;27.27;;;6.80;;
26080;SDS011;13991;51.174;4.438;2023-08-30T06:25:10;21.70;;;7.07;;
26080;SDS011;13991;51.174;4.438;2023-08-30T06:27:41;18.97;;;7.07;;
26080;SDS011;13991;51.174;4.438;2023-08-30T06:30:08;17.63;;;6.80;;
26080;SDS011;13991;51.174;4.438;2023-08-30T06:32:37;15.60;;;7.20;;
26080;SDS011;13991;51.174;4.438;2023-08-30T06:35:03;17.20;;;6.90;;
26080;SDS011;13991;51.174;4.438;2023-08-30T06:37:29;21.47;;;7.57;;
26080;SDS011;13991;51.174;4.438;2023-08-30T06:39:55;19.87;;;7.97;;
26080;SDS011;13991;51.174;4.438;2023-08-30T06:42:20;21.73;;;7.63;;
26080;SDS011;13991;51.174;4.438;2023-08-30T06:44:46;21.80;;;7.40;;
26080;SDS011;13991;51.174;4.438;2023-08-30T06:47:11;27.10;;;8.07;;
26080;SDS011;13991;51.174;4.438;2023-08-30T06:49:37;24.33;;;8.43;;
26080;SDS011;13991;51.174;4.438;2023-08-30T06:52:03;23.40;;;8.80;;
26080;SDS011;13991;51.174;4.438;2023-08-30T06:54:32;27.03;;;9.63;;
26080;SDS011;13991;51.174;4.438;2023-08-30T06:56:59;25.40;;;9.63;;
26080;SDS011;13991;51.174;4.438;2023-08-30T06:59:29;27.93;;;9.20;;
26080;SDS011;13991;51.174;4.438;2023-08-30T07:01:55;25.33;;;8.23;;
26080;SDS011;13991;51.174;4.438;2023-08-30T07:04:20;29.20;;;9.67;;
26080;SDS011;13991;51.174;4.438;2023-08-30T07:06:46;21.17;;;8.33;;
26080;SDS011;13991;51.174;4.438;2023-08-30T07:09:12;22.20;;;9.07;;
26080;SDS011;13991;51.174;4.438;2023-08-30T07:11:38;20.23;;;8.43;;
26080;SDS011;13991;51.174;4.438;2023-08-30T07:14:03;23.23;;;8.13;;
26080;SDS011;13991;51.174;4.438;2023-08-30T07:16:29;24.97;;;9.00;;
26080;SDS011;13991;51.174;4.438;2023-08-30T07:18:57;24.47;;;8.57;;
26080;SDS011;13991;51.174;4.438;2023-08-30T07:21:23;22.93;;;8.30;;
26080;SDS011;13991;51.174;4.438;2023-08-30T07:23:48;22.00;;;7.97;;
26080;SDS011;13991;51.174;4.438;2023-08-30T07:26:14;28.97;;;8.53;;
26080;SDS011;13991;51.174;4.438;2023-08-30T07:28:40;19.03;;;7.30;;
26080;SDS011;13991;51.174;4.438;2023-08-30T07:31:05;31.00;;;8.50;;
26080;SDS011;13991;51.174;4.438;2023-08-30T07:33:31;23.87;;;6.73;;
26080;SDS011;13991;51.174;4.438;2023-08-30T07:35:57;20.57;;;6.53;;
26080;SDS011;13991;51.174;4.438;2023-08-30T07:38:24;18.83;;;6.70;;
26080;SDS011;13991;51.174;4.438;2023-08-30T07:40:50;16.57;;;6.30;;
26080;SDS011;13991;51.174;4.438;2023-08-30T07:43:16;13.50;;;5.43;;
26080;SDS011;13991;51.174;4.438;2023-08-30T07:45:42;17.70;;;6.07;;
26080;SDS011;13991;51.174;4.438;2023-08-30T07:48:07;12.63;;;5.43;;
26080;SDS011;13991;51.174;4.438;2023-08-30T07:50:33;13.47;;;5.53;;
26080;SDS011;13991;51.174;4.438;2023-08-30T07:52:59;17.13;;;5.73;;
26080;SDS011;13991;51.174;4.438;2023-08-30T07:55:24;16.23;;;5.87;;
26080;SDS011;13991;51.174;4.438;2023-08-30T07:57:50;15.67;;;5.70;;
26080;SDS011;13991;51.174;4.438;2023-08-30T08:00:16;12.27;;;5.30;;
26080;SDS011;13991;51.174;4.438;2023-08-30T08:02:42;13.90;;;5.00;;
26080;SDS011;13991;51.174;4.438;2023-08-30T08:05:07;12.80;;;4.47;;
26080;SDS011;13991;51.174;4.438;2023-08-30T08:07:33;12.20;;;5.03;;
26080;SDS011;13991;51.174;4.438;2023-08-30T08:10:01;10.93;;;4.57;;
26080;SDS011;13991;51.174;4.438;2023-08-30T08:12:26;8.20;;;3.80;;
26080;SDS011;13991;51.174;4.438;2023-08-30T08:14:52;10.50;;;4.50;;
26080;SDS011;13991;51.174;4.438;2023-08-30T08:17:18;9.67;;;4.00;;
26080;SDS011;13991;51.174;4.438;2023-08-30T08:19:43;13.07;;;4.13;;
26080;SDS011;13991;51.174;4.438;2023-08-30T08:22:09;10.27;;;3.73;;
26080;SDS011;13991;51.174;4.438;2023-08-30T08:24:35;10.47;;;4.23;;
26080;SDS011;13991;51.174;4.438;2023-08-30T08:27:00;7.57;;;3.60;;
26080;SDS011;13991;51.174;4.438;2023-08-30T08:29:27;11.10;;;4.60;;
26080;SDS011;13991;51.174;4.438;2023-08-30T08:31:53;7.90;;;4.07;;
26080;SDS011;13991;51.174;4.438;2023-08-30T08:34:19;8.40;;;3.43;;
26080;SDS011;13991;51.174;4.438;2023-08-30T08:36:45;6.97;;;3.67;;
26080;SDS011;13991;51.174;4.438;2023-08-30T08:39:10;8.50;;;3.70;;
26080;SDS011;13991;51.174;4.438;2023-08-30T08:41:40;9.23;;;3.83;;
26080;SDS011;13991;51.174;4.438;2023-08-30T08:44:07;11.63;;;3.97;;
26080;SDS011;13991;51.174;4.438;2023-08-30T08:46:37;7.30;;;3.47;;
26080;SDS011;13991;51.174;4.438;2023-08-30T08:51:39;5.13;;;3.57;;
26080;SDS011;13991;51.174;4.438;2023-08-30T08:54:07;5.63;;;3.53;;
26080;SDS011;13991;51.174;4.438;2023-08-30T08:56:34;4.83;;;3.20;;
26080;SDS011;13991;51.174;4.438;2023-08-30T08:59:00;6.77;;;4.10;;
26080;SDS011;13991;51.174;4.438;2023-08-30T09:01:27;7.63;;;4.00;;
26080;SDS011;13991;51.174;4.438;2023-08-30T09:03:53;8.93;;;4.93;;
26080;SDS011;13991;51.174;4.438;2023-08-30T09:06:19;8.63;;;4.80;;
26080;SDS011;13991;51.174;4.438;2023-08-30T09:08:46;11.63;;;4.97;;
26080;SDS011;13991;51.174;4.438;2023-08-30T09:11:12;8.57;;;5.47;;
26080;SDS011;13991;51.174;4.438;2023-08-30T09:13:38;10.43;;;5.43;;
26080;SDS011;13991;51.174;4.438;2023-08-30T09:16:11;11.77;;;6.87;;
26080;SDS011;13991;51.174;4.438;2023-08-30T09:18:38;15.17;;;6.57;;
26080;SDS011;13991;51.174;4.438;2023-08-30T09:21:07;17.53;;;7.33;;
26080;SDS011;13991;51.174;4.438;2023-08-30T09:23:33;15.07;;;7.10;;
26080;SDS011;13991;51.174;4.438;2023-08-30T09:25:59;10.37;;;6.87;;
26080;SDS011;13991;51.174;4.438;2023-08-30T09:28:25;16.40;;;7.83;;
26080;SDS011;13991;51.174;4.438;2023-08-30T09:30:52;11.20;;;7.00;;
26080;SDS011;13991;51.174;4.438;2023-08-30T09:33:36;10.43;;;6.90;;
26080;SDS011;13991;51.174;4.438;2023-08-30T09:36:01;10.23;;;6.43;;
26080;SDS011;13991;51.174;4.438;2023-08-30T09:38:27;10.43;;;6.60;;
26080;SDS011;13991;51.174;4.438;2023-08-30T09:41:02;13.07;;;6.87;;
26080;SDS011;13991;51.174;4.438;2023-08-30T09:43:29;13.50;;;6.90;;
26080;SDS011;13991;51.174;4.438;2023-08-30T09:45:56;15.37;;;7.37;;
26080;SDS011;13991;51.174;4.438;2023-08-30T09:48:22;11.83;;;6.93;;
26080;SDS011;13991;51.174;4.438;2023-08-30T09:50:53;14.97;;;6.27;;
26080;SDS011;13991;51.174;4.438;2023-08-30T09:53:20;12.30;;;6.03;;
26080;SDS011;13991;51.174;4.438;2023-08-30T09:55:49;13.60;;;6.27;;
26080;SDS011;13991;51.174;4.438;2023-08-30T09:58:16;14.67;;;6.30;;
26080;SDS011;13991;51.174;4.438;2023-08-30T10:00:42;11.73;;;5.47;;
26080;SDS011;13991;51.174;4.438;2023-08-30T10:03:09;13.30;;;5.57;;
26080;SDS011;13991;51.174;4.438;2023-08-30T10:05:35;14.17;;;4.83;;
26080;SDS011;13991;51.174;4.438;2023-08-30T10:08:01;13.90;;;4.97;;
26080;SDS011;13991;51.174;4.438;2023-08-30T10:10:29;9.57;;;3.37;;
26080;SDS011;13991;51.174;4.438;2023-08-30T10:12:56;8.20;;;2.60;;
26080;SDS011;13991;51.174;4.438;2023-08-30T10:15:23;8.07;;;3.63;;
26080;SDS011;13991;51.174;4.438;2023-08-30T10:17:52;10.73;;;3.07;;
26080;SDS011;13991;51.174;4.438;2023-08-30T10:20:20;14.30;;;3.53;;
26080;SDS011;13991;51.174;4.438;2023-08-30T10:22:47;11.83;;;3.20;;
26080;SDS011;13991;51.174;4.438;2023-08-30T10:25:16;17.30;;;2.80;;
26080;SDS011;13991;51.174;4.438;2023-08-30T10:27:46;8.00;;;3.03;;
26080;SDS011;13991;51.174;4.438;2023-08-30T10:30:13;12.20;;;3.47;;
26080;SDS011;13991;51.174;4.438;2023-08-30T10:32:41;6.00;;;3.07;;
26080;SDS011;13991;51.174;4.438;2023-08-30T10:35:11;6.97;;;2.17;;
26080;SDS011;13991;51.174;4.438;2023-08-30T10:37:38;13.60;;;2.67;;
26080;SDS011;13991;51.174;4.438;2023-08-30T10:40:04;11.83;;;2.00;;
26080;SDS011;13991;51.174;4.438;2023-08-30T10:42:33;6.57;;;1.73;;
26080;SDS011;13991;51.174;4.438;2023-08-30T10:45:00;9.77;;;1.87;;
26080;SDS011;13991;51.174;4.438;2023-08-30T10:47:30;9.27;;;2.40;;
26080;SDS011;13991;51.174;4.438;2023-08-30T10:49:58;12.90;;;1.93;;
26080;SDS011;13991;51.174;4.438;2023-08-30T10:52:25;12.37;;;2.03;;
26080;SDS011;13991;51.174;4.438;2023-08-30T10:54:53;9.80;;;1.80;;
26080;SDS011;13991;51.174;4.438;2023-08-30T10:57:29;12.60;;;2.83;;
26080;SDS011;13991;51.174;4.438;2023-08-30T11:02:36;14.43;;;2.40;;
26080;SDS011;13991;51.174;4.438;2023-08-30T11:05:03;11.73;;;2.30;;
26080;SDS011;13991;51.174;4.438;2023-08-30T11:07:34;12.33;;;2.50;;
26080;SDS011;13991;51.174;4.438;2023-08-30T11:10:00;9.13;;;2.93;;
26080;SDS011;13991;51.174;4.438;2023-08-30T11:12:26;19.70;;;2.00;;
26080;SDS011;13991;51.174;4.438;2023-08-30T11:14:52;20.37;;;2.90;;
26080;SDS011;13991;51.174;4.438;2023-08-30T11:17:19;10.83;;;2.00;;
26080;SDS011;13991;51.174;4.438;2023-08-30T11:19:45;12.53;;;1.80;;
26080;SDS011;13991;51.174;4.438;2023-08-30T11:22:14;18.33;;;2.00;;
26080;SDS011;13991;51.174;4.438;2023-08-30T11:24:43;7.10;;;1.63;;
26080;SDS011;13991;51.174;4.438;2023-08-30T11:27:10;11.37;;;2.23;;
26080;SDS011;13991;51.174;4.438;2023-08-30T11:29:36;9.53;;;1.77;;
26080;SDS011;13991;51.174;4.438;2023-08-30T11:32:06;7.83;;;1.37;;
26080;SDS011;13991;51.174;4.438;2023-08-30T11:34:32;12.53;;;1.60;;
26080;SDS011;13991;51.174;4.438;2023-08-30T11:36:58;12.47;;;1.70;;
26080;SDS011;13991;51.174;4.438;2023-08-30T11:39:24;8.00;;;1.77;;
26080;SDS011;13991;51.174;4.438;2023-08-30T11:41:54;16.23;;;1.90;;
26080;SDS011;13991;51.174;4.438;2023-08-30T11:44:20;11.20;;;1.70;;
26080;SDS011;13991;51.174;4.438;2023-08-30T11:46:48;14.40;;;1.97;;
26080;SDS011;13991;51.174;4.438;2023-08-30T11:49:17;9.27;;;1.57;;
26080;SDS011;13991;51.174;4.438;2023-08-30T11:51:43;13.43;;;1.60;;
26080;SDS011;13991;51.174;4.438;2023-08-30T11:54:09;7.70;;;1.50;;
26080;SDS011;13991;51.174;4.438;2023-08-30T11:56:35;12.00;;;1.87;;
26080;SDS011;13991;51.174;4.438;2023-08-30T11:59:01;8.60;;;1.20;;
26080;SDS011;13991;51.174;4.438;2023-08-30T12:01:29;12.27;;;1.30;;
26080;SDS011;13991;51.174;4.438;2023-08-30T12:03:55;12.20;;;1.50;;
26080;SDS011;13991;51.174;4.438;2023-08-30T12:06:22;9.90;;;1.70;;
26080;SDS011;13991;51.174;4.438;2023-08-30T12:08:48;19.63;;;2.67;;
26080;SDS011;13991;51.174;4.438;2023-08-30T12:11:22;9.03;;;2.00;;
26080;SDS011;13991;51.174;4.438;2023-08-30T12:13:47;15.47;;;2.57;;
26080;SDS011;13991;51.174;4.438;2023-08-30T12:16:16;8.17;;;1.53;;
26080;SDS011;13991;51.174;4.438;2023-08-30T12:18:43;11.50;;;1.53;;
26080;SDS011;13991;51.174;4.438;2023-08-30T12:21:09;13.73;;;1.40;;
26080;SDS011;13991;51.174;4.438;2023-08-30T12:23:34;14.50;;;1.70;;
26080;SDS011;13991;51.174;4.438;2023-08-30T12:26:01;14.77;;;1.60;;
26080;SDS011;13991;51.174;4.438;2023-08-30T12:28:40;11.40;;;1.33;;
26080;SDS011;13991;51.174;4.438;2023-08-30T12:31:09;11.70;;;1.83;;
26080;SDS011;13991;51.174;4.438;2023-08-30T12:33:35;8.20;;;1.13;;
26080;SDS011;13991;51.174;4.438;2023-08-30T12:36:02;6.17;;;1.23;;
26080;SDS011;13991;51.174;4.438;2023-08-30T12:38:29;12.57;;;1.77;;
26080;SDS011;13991;51.174;4.438;2023-08-30T12:40:55;8.60;;;1.70;;
26080;SDS011;13991;51.174;4.438;2023-08-30T12:43:22;6.53;;;1.23;;
26080;SDS011;13991;51.174;4.438;2023-08-30T12:45:49;8.93;;;1.50;;
26080;SDS011;13991;51.174;4.438;2023-08-30T12:48:16;7.43;;;1.20;;
26080;SDS011;13991;51.174;4.438;2023-08-30T12:50:44;10.53;;;0.93;;
26080;SDS011;13991;51.174;4.438;2023-08-30T12:53:11;8.27;;;1.00;;
26080;SDS011;13991;51.174;4.438;2023-08-30T12:55:37;7.67;;;0.70;;
26080;SDS011;13991;51.174;4.438;2023-08-30T12:58:06;7.03;;;1.00;;
26080;SDS011;13991;51.174;4.438;2023-08-30T13:00:33;9.73;;;1.10;;
26080;SDS011;13991;51.174;4.438;2023-08-30T13:02:59;12.27;;;1.47;;
26080;SDS011;13991;51.174;4.438;2023-08-30T13:05:25;8.43;;;1.07;;
26080;SDS011;13991;51.174;4.438;2023-08-30T13:07:51;10.27;;;1.40;;
26080;SDS011;13991;51.174;4.438;2023-08-30T13:10:17;8.23;;;1.27;;
26080;SDS011;13991;51.174;4.438;2023-08-30T13:12:43;13.73;;;1.63;;
26080;SDS011;13991;51.174;4.438;2023-08-30T13:15:09;8.30;;;1.10;;
26080;SDS011;13991;51.174;4.438;2023-08-30T13:17:35;10.97;;;0.97;;
26080;SDS011;13991;51.174;4.438;2023-08-30T13:20:00;8.07;;;1.47;;
26080;SDS011;13991;51.174;4.438;2023-08-30T13:22:27;12.50;;;1.77;;
26080;SDS011;13991;51.174;4.438;2023-08-30T13:24:53;10.93;;;1.13;;
26080;SDS011;13991;51.174;4.438;2023-08-30T13:27:19;13.50;;;0.93;;
26080;SDS011;13991;51.174;4.438;2023-08-30T13:29:45;10.43;;;1.40;;
26080;SDS011;13991;51.174;4.438;2023-08-30T13:32:11;9.60;;;1.10;;
26080;SDS011;13991;51.174;4.438;2023-08-30T13:34:37;12.73;;;1.10;;
26080;SDS011;13991;51.174;4.438;2023-08-30T13:37:03;9.93;;;1.87;;
26080;SDS011;13991;51.174;4.438;2023-08-30T13:39:29;9.03;;;1.20;;
26080;SDS011;13991;51.174;4.438;2023-08-30T13:41:55;8.20;;;1.57;;
26080;SDS011;13991;51.174;4.438;2023-08-30T13:44:21;20.17;;;1.30;;
26080;SDS011;13991;51.174;4.438;2023-08-30T13:46:46;7.37;;;1.20;;
26080;SDS011;13991;51.174;4.438;2023-08-30T13:49:15;6.50;;;0.80;;
26080;SDS011;13991;51.174;4.438;2023-08-30T13:51:41;5.40;;;0.90;;
26080;SDS011;13991;51.174;4.438;2023-08-30T13:54:06;5.87;;;1.00;;
26080;SDS011;13991;51.174;4.438;2023-08-30T13:56:32;14.97;;;1.30;;
26080;SDS011;13991;51.174;4.438;2023-08-30T13:58:58;9.03;;;1.87;;
26080;SDS011;13991;51.174;4.438;2023-08-30T14:01:24;6.80;;;0.70;;
26080;SDS011;13991;51.174;4.438;2023-08-30T14:03:50;6.67;;;0.67;;
26080;SDS011;13991;51.174;4.438;2023-08-30T14:06:15;7.63;;;0.60;;
26080;SDS011;13991;51.174;4.438;2023-08-30T14:08:41;6.10;;;0.50;;
26080;SDS011;13991;51.174;4.438;2023-08-30T14:11:08;10.70;;;0.80;;
26080;SDS011;13991;51.174;4.438;2023-08-30T14:13:33;6.60;;;0.50;;
26080;SDS011;13991;51.174;4.438;2023-08-30T14:15:59;14.57;;;0.83;;
26080;SDS011;13991;51.174;4.438;2023-08-30T14:18:26;4.33;;;0.67;;
26080;SDS011;13991;51.174;4.438;2023-08-30T14:20:55;7.23;;;1.00;;
26080;SDS011;13991;51.174;4.438;2023-08-30T14:23:22;3.93;;;1.00;;
26080;SDS011;13991;51.174;4.438;2023-08-30T14:26:03;5.90;;;0.97;;
26080;SDS011;13991;51.174;4.438;2023-08-30T14:28:34;5.90;;;0.97;;
26080;SDS011;13991;51.174;4.438;2023-08-30T14:31:03;5.83;;;0.90;;
26080;SDS011;13991;51.174;4.438;2023-08-30T14:33:31;6.37;;;1.00;;
26080;SDS011;13991;51.174;4.438;2023-08-30T14:35:56;7.80;;;0.83;;
26080;SDS011;13991;51.174;4.438;2023-08-30T14:38:22;14.03;;;1.00;;
26080;SDS011;13991;51.174;4.438;2023-08-30T14:40:57;6.37;;;0.93;;
26080;SDS011;13991;51.174;4.438;2023-08-30T14:43:24;12.00;;;1.13;;
26080;SDS011;13991;51.174;4.438;2023-08-30T14:45:50;4.63;;;0.70;;